< < Back
Terminal Aerodrome Forecast


Current Version              Previous Versions:   1  2  3  4  5  6  7  8  9  

Terminal Aerodrome Forecast

306
FTUS44 KMOB 270000 RRA
TAFPNS
TAF
KPNS 270009Z 2700/2724 34008KT P6SM SKC
     FM270300 32008KT P6SM SCT250
     FM271100 32012G15KT P6SM SCT250=



Latest METAR

023
SAUS70 KWBC 271600 RRA
MTRPNS
METAR KPNS 271553Z 33010KT 10SM CLR 14/03 A3008 RMK AO2 SLP188
T01390028


USA.gov is the U.S. government's official web portal to all federal, state and local government web resources and services.